Time,TemperatureF,DewpointF,PressureIn,WindDirection,WindDirectionDegrees,WindSpeedMPH,WindSpeedGustMPH,Humidity,HourlyPrecipIn,Conditions,Clouds,dailyrainin,SolarRadiationWatts/m^2,SoftwareType,DateUTC
2013-04-30 02:32:00,42.0,15.0,-100.00,North,2,3.0,9.0,33,-99.99,,,0.00,0.000000,,2013-04-30 08:32:00,
2013-04-30 02:42:00,42.0,15.0,-100.00,North,2,3.0,9.0,33,-99.99,,,0.00,0.000000,,2013-04-30 08:42:00,
2013-04-30 02:52:00,42.0,15.0,-100.00,North,2,3.0,9.0,33,-99.99,,,0.00,0.000000,,2013-04-30 08:52:00,
2013-04-30 03:01:00,42.0,15.0,-100.00,North,2,3.0,9.0,33,-99.99,,,0.00,0.000000,,2013-04-30 09:01:00,
2013-04-30 10:33:00,55.0,15.0,-100.00,SW,226,7.0,20.0,20,-99.99,,,0.00,496.000000,,2013-04-30 16:33:00,
2013-04-30 10:42:00,55.0,15.0,-100.00,SW,226,7.0,20.0,20,-99.99,,,0.00,496.000000,,2013-04-30 16:42:00,
2013-04-30 10:52:00,55.0,15.0,-100.00,SW,226,7.0,20.0,20,-99.99,,,0.00,496.000000,,2013-04-30 16:52:00,
2013-04-30 11:02:00,55.0,15.0,-100.00,SW,226,7.0,20.0,20,-99.99,,,0.00,496.000000,,2013-04-30 17:02:00,
2013-04-30 12:32:00,59.0,18.0,-100.00,SW,225,11.0,30.0,20,-99.99,,,-99.99,1009.000000,,2013-04-30 18:32:00,
2013-04-30 12:42:00,59.0,18.0,-100.00,SW,225,11.0,30.0,20,-99.99,,,-99.99,1009.000000,,2013-04-30 18:42:00,
2013-04-30 12:52:00,59.0,18.0,-100.00,SW,225,11.0,30.0,20,-99.99,,,-99.99,1009.000000,,2013-04-30 18:52:00,
2013-04-30 13:01:00,59.0,18.0,-100.00,SW,225,11.0,30.0,20,-99.99,,,-99.99,1009.000000,,2013-04-30 19:01:00,
2013-04-30 13:32:00,60.0,18.0,-100.00,WSW,243,10.0,32.0,19,0.00,,,-99.99,1304.000000,,2013-04-30 19:32:00,
2013-04-30 13:42:00,60.0,18.0,-100.00,WSW,243,10.0,32.0,19,0.00,,,-99.99,1304.000000,,2013-04-30 19:42:00,
2013-04-30 13:52:00,60.0,18.0,-100.00,WSW,243,10.0,32.0,19,0.00,,,-99.99,1304.000000,,2013-04-30 19:52:00,
2013-04-30 14:02:00,60.0,18.0,-100.00,WSW,243,10.0,32.0,19,0.00,,,-99.99,1304.000000,,2013-04-30 20:02:00,
2013-04-30 14:32:00,60.0,18.0,-100.00,SW,229,13.0,37.0,19,0.00,,,0.00,1279.000000,,2013-04-30 20:32:00,
2013-04-30 14:42:00,60.0,18.0,-100.00,SW,229,13.0,37.0,19,0.00,,,0.00,1279.000000,,2013-04-30 20:42:00,
2013-04-30 14:52:00,60.0,18.0,-100.00,SW,229,13.0,37.0,19,0.00,,,0.00,1279.000000,,2013-04-30 20:52:00,
2013-04-30 15:02:00,60.0,18.0,-100.00,SW,229,13.0,37.0,19,0.00,,,0.00,1279.000000,,2013-04-30 21:02:00,
2013-04-30 15:32:00,60.0,20.0,-100.00,WSW,258,10.0,31.0,21,0.00,,,-99.99,1182.000000,,2013-04-30 21:32:00,
2013-04-30 15:42:00,60.0,20.0,-100.00,WSW,258,10.0,31.0,21,0.00,,,-99.99,1182.000000,,2013-04-30 21:42:00,
2013-04-30 15:53:00,60.0,20.0,-100.00,WSW,258,10.0,31.0,21,0.00,,,-99.99,1182.000000,,2013-04-30 21:53:00,
2013-04-30 16:02:00,60.0,20.0,-100.00,WSW,258,10.0,31.0,21,0.00,,,-99.99,1182.000000,,2013-04-30 22:02:00,
2013-04-30 16:33:00,60.0,15.0,-100.00,WSW,249,7.0,29.0,17,0.00,,,0.00,960.000000,,2013-04-30 22:33:00,
2013-04-30 16:42:00,60.0,15.0,-100.00,WSW,249,7.0,29.0,17,0.00,,,0.00,960.000000,,2013-04-30 22:42:00,
2013-04-30 16:53:00,60.0,15.0,-100.00,WSW,249,7.0,29.0,17,0.00,,,0.00,960.000000,,2013-04-30 22:53:00,
2013-04-30 17:02:00,60.0,15.0,-100.00,WSW,249,7.0,29.0,17,0.00,,,0.00,960.000000,,2013-04-30 23:02:00,
2013-04-30 17:32:00,59.0,13.0,-100.00,West,260,10.0,31.0,16,0.00,,,0.00,799.000000,,2013-04-30 23:32:00,
2013-04-30 17:42:00,59.0,13.0,-100.00,West,260,10.0,31.0,16,0.00,,,0.00,799.000000,,2013-04-30 23:42:00,
2013-04-30 17:52:00,59.0,13.0,-100.00,West,260,10.0,31.0,16,0.00,,,0.00,799.000000,,2013-04-30 23:52:00,
2013-04-30 18:02:00,59.0,13.0,-100.00,West,260,10.0,31.0,16,0.00,,,0.00,799.000000,,2013-05-01 00:02:00,
2013-04-30 18:32:00,56.0,13.0,-100.00,West,260,7.0,26.0,18,-99.99,,,-99.99,306.000000,,2013-05-01 00:32:00,
2013-04-30 18:42:00,56.0,13.0,-100.00,West,260,7.0,26.0,18,-99.99,,,-99.99,306.000000,,2013-05-01 00:42:00,
2013-04-30 18:52:00,56.0,13.0,-100.00,West,260,7.0,26.0,18,-99.99,,,-99.99,306.000000,,2013-05-01 00:52:00,
2013-04-30 19:01:00,56.0,13.0,-100.00,West,260,7.0,26.0,18,-99.99,,,-99.99,306.000000,,2013-05-01 01:01:00,
2013-04-30 19:32:00,54.0,13.0,-100.00,WSW,248,9.0,26.0,19,0.00,,,-99.99,110.000000,,2013-05-01 01:32:00,
2013-04-30 19:42:00,54.0,13.0,-100.00,WSW,248,9.0,26.0,19,0.00,,,-99.99,110.000000,,2013-05-01 01:42:00,
2013-04-30 19:52:00,54.0,13.0,-100.00,WSW,248,9.0,26.0,19,0.00,,,-99.99,110.000000,,2013-05-01 01:52:00,
2013-04-30 20:02:00,54.0,13.0,-100.00,WSW,248,9.0,26.0,19,0.00,,,-99.99,110.000000,,2013-05-01 02:02:00,
2013-04-30 20:32:00,51.0,15.0,-100.00,WSW,258,7.0,24.0,23,0.00,,,-99.99,14.000000,,2013-05-01 02:32:00,
2013-04-30 20:42:00,51.0,15.0,-100.00,WSW,258,7.0,24.0,23,0.00,,,-99.99,14.000000,,2013-05-01 02:42:00,
2013-04-30 20:52:00,51.0,15.0,-100.00,WSW,258,7.0,24.0,23,0.00,,,-99.99,14.000000,,2013-05-01 02:52:00,
2013-04-30 21:02:00,51.0,15.0,-100.00,WSW,258,7.0,24.0,23,0.00,,,-99.99,14.000000,,2013-05-01 03:02:00,
2013-04-30 21:33:00,48.0,16.0,-100.00,West,278,3.0,12.0,27,0.00,,,-99.99,0.000000,,2013-05-01 03:33:00,
2013-04-30 21:43:00,48.0,16.0,-100.00,West,278,3.0,12.0,27,0.00,,,-99.99,0.000000,,2013-05-01 03:43:00,
2013-04-30 21:53:00,48.0,16.0,-100.00,West,278,3.0,12.0,27,0.00,,,-99.99,0.000000,,2013-05-01 03:53:00,
2013-04-30 22:03:00,48.0,16.0,-100.00,West,278,3.0,12.0,27,0.00,,,-99.99,0.000000,,2013-05-01 04:03:00,
2013-04-30 22:32:00,43.0,19.0,-100.00,NNE,31,2.0,8.0,37,0.00,,,-99.99,0.000000,,2013-05-01 04:32:00,
2013-04-30 22:43:00,43.0,19.0,-100.00,NNE,31,2.0,8.0,37,0.00,,,-99.99,0.000000,,2013-05-01 04:43:00,
2013-04-30 22:52:00,43.0,19.0,-100.00,NNE,31,2.0,8.0,37,0.00,,,-99.99,0.000000,,2013-05-01 04:52:00,
2013-04-30 23:02:00,43.0,19.0,-100.00,NNE,31,2.0,8.0,37,0.00,,,-99.99,0.000000,,2013-05-01 05:02:00,
2013-04-30 23:32:00,42.0,22.0,-100.00,NNW,339,4.0,13.0,44,0.00,,,-99.99,0.000000,,2013-05-01 05:32:00,
2013-04-30 23:42:00,42.0,22.0,-100.00,NNW,339,4.0,13.0,44,0.00,,,-99.99,0.000000,,2013-05-01 05:42:00,
2013-04-30 23:52:00,42.0,22.0,-100.00,NNW,339,4.0,13.0,44,0.00,,,-99.99,0.000000,,2013-05-01 05:52:00,